sensor_id;sensor_type;location;lat;lon;timestamp;pressure;altitude;pressure_sealevel;temperature;humidity
22662;BME280;11497;52.222;21.246;2023-02-20T00:01:05;100486.69;;;1.06;83.63
22662;BME280;11497;52.222;21.246;2023-02-20T00:03:33;100474.50;;;0.83;85.00
22662;BME280;11497;52.222;21.246;2023-02-20T00:06:01;100471.06;;;0.87;86.66
22662;BME280;11497;52.222;21.246;2023-02-20T00:08:29;100460.81;;;0.93;87.57
22662;BME280;11497;52.222;21.246;2023-02-20T00:10:57;100456.50;;;0.91;88.14
22662;BME280;11497;52.222;21.246;2023-02-20T00:13:24;100453.13;;;0.98;88.65
22662;BME280;11497;52.222;21.246;2023-02-20T00:15:52;100453.94;;;0.86;89.21
22662;BME280;11497;52.222;21.246;2023-02-20T00:18:20;100450.44;;;0.81;89.83
22662;BME280;11497;52.222;21.246;2023-02-20T00:20:48;100450.50;;;0.93;90.39
22662;BME280;11497;52.222;21.246;2023-02-20T00:23:16;100437.66;;;0.96;90.65
22662;BME280;11497;52.222;21.246;2023-02-20T00:25:44;100437.66;;;0.96;90.85
22662;BME280;11497;52.222;21.246;2023-02-20T00:28:12;100441.03;;;0.83;90.70
22662;BME280;11497;52.222;21.246;2023-02-20T00:30:40;100435.13;;;1.06;91.11
22662;BME280;11497;52.222;21.246;2023-02-20T00:33:08;100435.13;;;1.06;90.96
22662;BME280;11497;52.222;21.246;2023-02-20T00:35:36;100434.28;;;1.05;90.84
22662;BME280;11497;52.222;21.246;2023-02-20T00:38:05;100440.38;;;1.21;90.41
22662;BME280;11497;52.222;21.246;2023-02-20T00:40:34;100434.38;;;1.22;90.42
22662;BME280;11497;52.222;21.246;2023-02-20T00:43:02;100443.84;;;1.26;89.74
22662;BME280;11497;52.222;21.246;2023-02-20T00:45:30;100443.84;;;1.26;89.04
22662;BME280;11497;52.222;21.246;2023-02-20T00:47:57;100448.97;;;1.17;88.57
22662;BME280;11497;52.222;21.246;2023-02-20T00:50:25;100452.34;;;1.10;88.58
22662;BME280;11497;52.222;21.246;2023-02-20T00:52:53;100454.16;;;1.23;88.05
22662;BME280;11497;52.222;21.246;2023-02-20T00:55:21;100451.56;;;1.24;87.88
22662;BME280;11497;52.222;21.246;2023-02-20T00:57:49;100448.16;;;1.33;87.55
22662;BME280;11497;52.222;21.246;2023-02-20T01:00:26;100442.97;;;1.22;87.00
22662;BME280;11497;52.222;21.246;2023-02-20T01:02:54;100438.69;;;1.26;86.50
22662;BME280;11497;52.222;21.246;2023-02-20T01:05:23;100445.59;;;1.30;86.06
22662;BME280;11497;52.222;21.246;2023-02-20T01:07:52;100443.00;;;1.28;86.16
22662;BME280;11497;52.222;21.246;2023-02-20T01:10:21;100441.28;;;1.32;85.63
22662;BME280;11497;52.222;21.246;2023-02-20T01:12:48;100435.31;;;1.42;85.06
22662;BME280;11497;52.222;21.246;2023-02-20T01:15:16;100432.75;;;1.45;84.13
22662;BME280;11497;52.222;21.246;2023-02-20T01:17:45;100434.47;;;1.45;83.38
22662;BME280;11497;52.222;21.246;2023-02-20T01:20:13;100441.31;;;1.41;82.86
22662;BME280;11497;52.222;21.246;2023-02-20T01:22:41;100437.03;;;1.43;82.55
22662;BME280;11497;52.222;21.246;2023-02-20T01:25:10;100428.47;;;1.49;82.40
22662;BME280;11497;52.222;21.246;2023-02-20T01:27:38;100422.50;;;1.60;82.26
22662;BME280;11497;52.222;21.246;2023-02-20T01:30:07;100412.19;;;1.59;81.23
22662;BME280;11497;52.222;21.246;2023-02-20T01:32:35;100417.34;;;1.59;80.88
22662;BME280;11497;52.222;21.246;2023-02-20T01:35:04;100419.06;;;1.60;80.45
22662;BME280;11497;52.222;21.246;2023-02-20T01:37:34;100416.44;;;1.48;80.20
22662;BME280;11497;52.222;21.246;2023-02-20T01:40:03;100416.47;;;1.58;80.29
22662;BME280;11497;52.222;21.246;2023-02-20T01:42:33;100415.63;;;1.58;79.71
22662;BME280;11497;52.222;21.246;2023-02-20T01:47:52;100423.34;;;1.59;79.01
22662;BME280;11497;52.222;21.246;2023-02-20T01:50:39;100420.72;;;1.47;79.05
22662;BME280;11497;52.222;21.246;2023-02-20T01:53:14;100420.78;;;1.56;79.20
22662;BME280;11497;52.222;21.246;2023-02-20T01:55:48;100414.78;;;1.63;79.04
22662;BME280;11497;52.222;21.246;2023-02-20T01:58:32;100416.47;;;1.58;78.78
22662;BME280;11497;52.222;21.246;2023-02-20T02:01:03;100404.44;;;1.60;78.63
22662;BME280;11497;52.222;21.246;2023-02-20T02:03:34;100407.94;;;1.72;78.50
22662;BME280;11497;52.222;21.246;2023-02-20T02:06:05;100411.38;;;1.80;78.33
22662;BME280;11497;52.222;21.246;2023-02-20T02:08:35;100411.34;;;1.77;77.96
22662;BME280;11497;52.222;21.246;2023-02-20T02:11:05;100408.75;;;1.63;77.71
22662;BME280;11497;52.222;21.246;2023-02-20T02:13:37;100403.56;;;1.52;77.95
22662;BME280;11497;52.222;21.246;2023-02-20T02:21:55;100390.66;;;1.54;77.70
22662;BME280;11497;52.222;21.246;2023-02-20T02:24:51;100398.47;;;1.86;78.01
22662;BME280;11497;52.222;21.246;2023-02-20T02:47:01;100398.47;;;1.83;77.63
22662;BME280;11497;52.222;21.246;2023-02-20T02:49:50;100389.00;;;1.83;77.30
22662;BME280;11497;52.222;21.246;2023-02-20T02:52:22;100393.31;;;1.81;77.39
22662;BME280;11497;52.222;21.246;2023-02-20T02:55:10;100399.34;;;1.73;77.33
22662;BME280;11497;52.222;21.246;2023-02-20T02:57:37;100401.03;;;1.77;77.23
22662;BME280;11497;52.222;21.246;2023-02-20T03:06:17;100405.34;;;1.79;76.94
22662;BME280;11497;52.222;21.246;2023-02-20T03:09:04;100398.47;;;1.72;77.03
22662;BME280;11497;52.222;21.246;2023-02-20T03:11:35;100395.88;;;1.83;76.94
22662;BME280;11497;52.222;21.246;2023-02-20T03:14:15;100399.31;;;1.82;76.53
22662;BME280;11497;52.222;21.246;2023-02-20T03:17:14;100399.34;;;1.85;76.50
22662;BME280;11497;52.222;21.246;2023-02-20T03:19:49;100395.91;;;1.92;76.53
22662;BME280;11497;52.222;21.246;2023-02-20T03:22:31;100415.69;;;1.87;76.42
22662;BME280;11497;52.222;21.246;2023-02-20T03:25:07;100399.38;;;1.97;76.41
22662;BME280;11497;52.222;21.246;2023-02-20T03:28:16;100390.75;;;1.92;76.18
22662;BME280;11497;52.222;21.246;2023-02-20T03:31:05;100397.63;;;1.87;76.11
22662;BME280;11497;52.222;21.246;2023-02-20T03:34:03;100398.44;;;1.74;76.46
22662;BME280;11497;52.222;21.246;2023-02-20T03:37:12;100392.44;;;1.72;76.97
22662;BME280;11497;52.222;21.246;2023-02-20T03:40:05;100399.31;;;1.71;77.11
22662;BME280;11497;52.222;21.246;2023-02-20T03:42:59;100401.03;;;1.80;77.27
22662;BME280;11497;52.222;21.246;2023-02-20T03:45:48;100397.63;;;1.87;76.75
22662;BME280;11497;52.222;21.246;2023-02-20T03:48:44;100393.28;;;1.69;76.97
22662;BME280;11497;52.222;21.246;2023-02-20T03:51:14;100398.44;;;1.63;77.11
22662;BME280;11497;52.222;21.246;2023-02-20T03:53:54;100391.56;;;1.65;77.37
22662;BME280;11497;52.222;21.246;2023-02-20T03:56:29;100392.44;;;1.82;77.15
22662;BME280;11497;52.222;21.246;2023-02-20T03:59:10;100387.25;;;1.65;76.74
22662;BME280;11497;52.222;21.246;2023-02-20T04:01:41;100389.81;;;1.55;77.34
22662;BME280;11497;52.222;21.246;2023-02-20T04:04:15;100386.38;;;1.60;77.73
22662;BME280;11497;52.222;21.246;2023-02-20T04:06:47;100382.13;;;1.72;77.42
22662;BME280;11497;52.222;21.246;2023-02-20T04:09:22;100390.66;;;1.55;77.45
22662;BME280;11497;52.222;21.246;2023-02-20T04:11:57;100401.84;;;1.56;77.44
22662;BME280;11497;52.222;21.246;2023-02-20T04:14:29;100383.78;;;1.51;77.64
22662;BME280;11497;52.222;21.246;2023-02-20T04:17:04;100384.63;;;1.47;77.47
22662;BME280;11497;52.222;21.246;2023-02-20T04:19:35;100374.31;;;1.47;77.82
22662;BME280;11497;52.222;21.246;2023-02-20T04:22:08;100370.84;;;1.44;77.66
22662;BME280;11497;52.222;21.246;2023-02-20T04:24:45;100376.81;;;1.32;77.87
22662;BME280;11497;52.222;21.246;2023-02-20T04:27:15;100368.25;;;1.39;77.82
22662;BME280;11497;52.222;21.246;2023-02-20T04:29:51;100370.81;;;1.38;78.37
22662;BME280;11497;52.222;21.246;2023-02-20T04:32:19;100378.53;;;1.33;78.32
22662;BME280;11497;52.222;21.246;2023-02-20T04:34:47;100357.03;;;1.31;78.50
22662;BME280;11497;52.222;21.246;2023-02-20T04:37:17;100369.13;;;1.43;78.43
22662;BME280;11497;52.222;21.246;2023-02-20T04:39:48;100366.56;;;1.47;78.40
22662;BME280;11497;52.222;21.246;2023-02-20T04:42:18;100363.13;;;1.48;78.14
22662;BME280;11497;52.222;21.246;2023-02-20T04:44:46;100344.19;;;1.37;77.90
22662;BME280;11497;52.222;21.246;2023-02-20T04:47:16;100355.31;;;1.19;78.42
22662;BME280;11497;52.222;21.246;2023-02-20T04:49:44;100350.16;;;1.24;78.67
22662;BME280;11497;52.222;21.246;2023-02-20T04:52:17;100348.44;;;1.23;78.95
22662;BME280;11497;52.222;21.246;2023-02-20T04:54:44;100352.69;;;1.12;78.93
22662;BME280;11497;52.222;21.246;2023-02-20T04:57:14;100346.69;;;1.13;79.31
22662;BME280;11497;52.222;21.246;2023-02-20T04:59:42;100350.13;;;1.12;79.52
22662;BME280;11497;52.222;21.246;2023-02-20T05:02:11;100346.75;;;1.25;79.77
22662;BME280;11497;52.222;21.246;2023-02-20T05:04:39;100338.09;;;1.14;79.79
22662;BME280;11497;52.222;21.246;2023-02-20T05:07:07;100349.25;;;1.13;80.01
22662;BME280;11497;52.222;21.246;2023-02-20T05:09:35;100346.66;;;1.08;80.14
22662;BME280;11497;52.222;21.246;2023-02-20T05:12:03;100342.41;;;1.18;80.59
22662;BME280;11497;52.222;21.246;2023-02-20T05:14:31;100332.03;;;1.06;80.61
22662;BME280;11497;52.222;21.246;2023-02-20T05:16:59;100328.59;;;1.04;80.92
22662;BME280;11497;52.222;21.246;2023-02-20T05:19:27;100332.94;;;1.17;81.16
22662;BME280;11497;52.222;21.246;2023-02-20T05:21:55;100325.22;;;1.20;80.89
22662;BME280;11497;52.222;21.246;2023-02-20T05:24:45;100315.00;;;1.47;81.12
22662;BME280;11497;52.222;21.246;2023-02-20T05:27:15;100320.16;;;1.53;80.56
22662;BME280;11497;52.222;21.246;2023-02-20T05:29:45;100320.97;;;1.40;80.69
22662;BME280;11497;52.222;21.246;2023-02-20T05:32:14;100335.59;;;1.41;80.65
22662;BME280;11497;52.222;21.246;2023-02-20T05:34:44;100325.34;;;1.62;80.51
22662;BME280;11497;52.222;21.246;2023-02-20T05:37:15;100328.75;;;1.55;80.42
22662;BME280;11497;52.222;21.246;2023-02-20T05:39:44;100336.50;;;1.51;80.79
22662;BME280;11497;52.222;21.246;2023-02-20T05:42:12;100328.78;;;1.67;80.23
22662;BME280;11497;52.222;21.246;2023-02-20T05:44:40;100328.78;;;1.81;79.91
22662;BME280;11497;52.222;21.246;2023-02-20T05:47:09;100321.06;;;1.67;80.38
22662;BME280;11497;52.222;21.246;2023-02-20T05:49:37;100323.66;;;1.89;80.05
22662;BME280;11497;52.222;21.246;2023-02-20T05:52:05;100313.31;;;1.86;80.19
22662;BME280;11497;52.222;21.246;2023-02-20T05:54:39;100310.72;;;1.83;79.92
22662;BME280;11497;52.222;21.246;2023-02-20T05:57:08;100304.72;;;1.88;80.00
22662;BME280;11497;52.222;21.246;2023-02-20T05:59:37;100303.00;;;1.98;80.17
22662;BME280;11497;52.222;21.246;2023-02-20T06:02:05;100294.41;;;1.93;79.74
22662;BME280;11497;52.222;21.246;2023-02-20T06:04:33;100292.69;;;1.95;79.72
22662;BME280;11497;52.222;21.246;2023-02-20T06:07:01;100296.13;;;1.88;79.96
22662;BME280;11497;52.222;21.246;2023-02-20T06:09:29;100300.44;;;1.98;80.12
22662;BME280;11497;52.222;21.246;2023-02-20T06:11:57;100294.38;;;2.20;79.61
22662;BME280;11497;52.222;21.246;2023-02-20T06:14:25;100296.09;;;2.18;79.25
22662;BME280;11497;52.222;21.246;2023-02-20T06:16:56;100301.25;;;2.40;79.08
22662;BME280;11497;52.222;21.246;2023-02-20T06:19:24;100296.09;;;2.37;78.82
22662;BME280;11497;52.222;21.246;2023-02-20T06:21:53;100290.06;;;2.41;78.18
22662;BME280;11497;52.222;21.246;2023-02-20T06:24:21;100290.91;;;2.49;77.96
22662;BME280;11497;52.222;21.246;2023-02-20T06:26:49;100280.56;;;2.58;77.98
22662;BME280;11497;52.222;21.246;2023-02-20T06:29:19;100290.88;;;2.58;77.56
22662;BME280;11497;52.222;21.246;2023-02-20T06:31:47;100283.91;;;2.78;76.54
22662;BME280;11497;52.222;21.246;2023-02-20T06:34:16;100271.84;;;2.80;76.66
22662;BME280;11497;52.222;21.246;2023-02-20T06:36:45;100276.13;;;2.89;76.04
22662;BME280;11497;52.222;21.246;2023-02-20T06:39:13;100280.41;;;2.94;76.07
22662;BME280;11497;52.222;21.246;2023-02-20T06:41:42;100276.97;;;2.97;76.10
22662;BME280;11497;52.222;21.246;2023-02-20T06:44:10;100270.00;;;3.07;75.80
22662;BME280;11497;52.222;21.246;2023-02-20T06:46:38;100262.25;;;3.08;75.76
22662;BME280;11497;52.222;21.246;2023-02-20T06:49:06;100262.19;;;3.17;75.73
22662;BME280;11497;52.222;21.246;2023-02-20T06:51:34;100265.56;;;3.33;74.95
22662;BME280;11497;52.222;21.246;2023-02-20T06:54:03;100256.06;;;3.38;74.86
22662;BME280;11497;52.222;21.246;2023-02-20T06:56:33;100254.28;;;3.46;74.75
22662;BME280;11497;52.222;21.246;2023-02-20T06:59:03;100251.63;;;3.51;74.33
22662;BME280;11497;52.222;21.246;2023-02-20T07:01:41;100262.75;;;3.63;73.88
22662;BME280;11497;52.222;21.246;2023-02-20T07:04:20;100260.16;;;3.65;73.60
22662;BME280;11497;52.222;21.246;2023-02-20T07:06:49;100255.03;;;3.60;73.09
22662;BME280;11497;52.222;21.246;2023-02-20T07:09:17;100261.94;;;3.58;73.77
22662;BME280;11497;52.222;21.246;2023-02-20T07:11:47;100261.88;;;3.67;73.33
22662;BME280;11497;52.222;21.246;2023-02-20T07:14:18;100251.41;;;3.84;73.27
22662;BME280;11497;52.222;21.246;2023-02-20T07:16:46;100242.59;;;4.04;73.17
22662;BME280;11497;52.222;21.246;2023-02-20T07:19:14;100240.69;;;4.24;72.66
22662;BME280;11497;52.222;21.246;2023-02-20T07:21:42;100234.22;;;4.60;72.20
22662;BME280;11497;52.222;21.246;2023-02-20T07:24:12;100228.81;;;4.78;70.94
22662;BME280;11497;52.222;21.246;2023-02-20T07:26:40;100221.88;;;4.80;70.58
22662;BME280;11497;52.222;21.246;2023-02-20T07:29:08;100225.19;;;4.91;69.90
22662;BME280;11497;52.222;21.246;2023-02-20T07:31:36;100226.75;;;5.05;69.55
22662;BME280;11497;52.222;21.246;2023-02-20T07:34:05;100233.28;;;5.30;68.86
22662;BME280;11497;52.222;21.246;2023-02-20T07:36:36;100227.28;;;5.26;68.49
22662;BME280;11497;52.222;21.246;2023-02-20T07:39:05;100234.75;;;5.49;68.11
22662;BME280;11497;52.222;21.246;2023-02-20T07:41:33;100233.97;;;5.44;67.57
22662;BME280;11497;52.222;21.246;2023-02-20T07:44:04;100227.84;;;5.48;67.27
22662;BME280;11497;52.222;21.246;2023-02-20T07:46:33;100227.72;;;5.57;67.36
22662;BME280;11497;52.222;21.246;2023-02-20T07:49:02;100229.44;;;5.58;67.04
22662;BME280;11497;52.222;21.246;2023-02-20T07:51:31;100220.41;;;5.81;66.60
22662;BME280;11497;52.222;21.246;2023-02-20T07:53:59;100211.88;;;5.73;66.47
22662;BME280;11497;52.222;21.246;2023-02-20T07:56:28;100200.75;;;5.64;66.92
22662;BME280;11497;52.222;21.246;2023-02-20T07:58:56;100198.09;;;5.67;66.59
22662;BME280;11497;52.222;21.246;2023-02-20T08:01:27;100179.50;;;5.41;66.70
22662;BME280;11497;52.222;21.246;2023-02-20T08:03:56;100167.38;;;5.43;66.83
22662;BME280;11497;52.222;21.246;2023-02-20T08:06:24;100157.94;;;5.38;66.97
22662;BME280;11497;52.222;21.246;2023-02-20T08:08:52;100164.94;;;5.31;67.08
22662;BME280;11497;52.222;21.246;2023-02-20T08:11:21;100164.06;;;5.32;67.37
22662;BME280;11497;52.222;21.246;2023-02-20T08:13:50;100154.34;;;5.46;67.57
22662;BME280;11497;52.222;21.246;2023-02-20T08:16:18;100142.03;;;5.59;67.39
22662;BME280;11497;52.222;21.246;2023-02-20T08:18:46;100143.81;;;5.55;67.04
22662;BME280;11497;52.222;21.246;2023-02-20T08:21:14;100142.75;;;5.65;67.15
22662;BME280;11497;52.222;21.246;2023-02-20T08:23:42;100136.66;;;5.68;67.05
22662;BME280;11497;52.222;21.246;2023-02-20T08:26:10;100139.91;;;5.79;67.32
22662;BME280;11497;52.222;21.246;2023-02-20T08:28:38;100126.81;;;5.87;66.92
22662;BME280;11497;52.222;21.246;2023-02-20T08:31:06;100128.69;;;5.77;66.81
22662;BME280;11497;52.222;21.246;2023-02-20T08:33:34;100129.22;;;5.99;67.13
22662;BME280;11497;52.222;21.246;2023-02-20T08:36:02;100122.59;;;6.26;66.38
22662;BME280;11497;52.222;21.246;2023-02-20T08:38:35;100116.84;;;6.10;66.27
22662;BME280;11497;52.222;21.246;2023-02-20T08:41:08;100109.66;;;6.23;66.93
22662;BME280;11497;52.222;21.246;2023-02-20T08:43:38;100108.94;;;6.16;66.80
22662;BME280;11497;52.222;21.246;2023-02-20T08:46:07;100103.03;;;6.08;67.58
22662;BME280;11497;52.222;21.246;2023-02-20T08:48:35;100095.31;;;6.05;68.02
22662;BME280;11497;52.222;21.246;2023-02-20T08:51:05;100097.56;;;5.76;68.50
22662;BME280;11497;52.222;21.246;2023-02-20T08:53:33;100094.19;;;5.71;69.80
22662;BME280;11497;52.222;21.246;2023-02-20T08:56:05;100089.06;;;5.67;71.00
22662;BME280;11497;52.222;21.246;2023-02-20T08:58:33;100085.88;;;5.53;71.94
22662;BME280;11497;52.222;21.246;2023-02-20T09:01:01;100079.38;;;5.28;72.89
22662;BME280;11497;52.222;21.246;2023-02-20T09:03:29;100087.94;;;5.33;73.73
22662;BME280;11497;52.222;21.246;2023-02-20T09:05:57;100071.03;;;5.11;75.12
22662;BME280;11497;52.222;21.246;2023-02-20T09:08:25;100052.09;;;5.06;75.63
22662;BME280;11497;52.222;21.246;2023-02-20T09:10:53;100039.47;;;4.83;77.36
22662;BME280;11497;52.222;21.246;2023-02-20T09:13:21;100030.25;;;4.65;78.61
22662;BME280;11497;52.222;21.246;2023-02-20T09:15:49;100023.47;;;4.58;79.97
22662;BME280;11497;52.222;21.246;2023-02-20T09:18:17;100016.56;;;4.57;80.43
22662;BME280;11497;52.222;21.246;2023-02-20T09:20:45;100008.09;;;4.46;82.19
22662;BME280;11497;52.222;21.246;2023-02-20T09:23:14;99996.03;;;4.42;82.60
22662;BME280;11497;52.222;21.246;2023-02-20T09:25:42;99997.16;;;4.25;83.29
22662;BME280;11497;52.222;21.246;2023-02-20T09:28:10;99994.66;;;4.19;84.52
22662;BME280;11497;52.222;21.246;2023-02-20T09:30:38;99994.94;;;3.98;85.38
22662;BME280;11497;52.222;21.246;2023-02-20T09:33:06;99991.25;;;4.14;86.22
22662;BME280;11497;52.222;21.246;2023-02-20T09:35:35;99982.78;;;4.03;87.35
22662;BME280;11497;52.222;21.246;2023-02-20T09:38:02;99978.47;;;4.02;87.53
22662;BME280;11497;52.222;21.246;2023-02-20T09:40:31;99950.03;;;3.99;88.45
22662;BME280;11497;52.222;21.246;2023-02-20T09:49:04;99931.81;;;4.07;90.02
22662;BME280;11497;52.222;21.246;2023-02-20T09:51:38;99918.97;;;3.99;90.34
22662;BME280;11497;52.222;21.246;2023-02-20T09:54:12;99899.94;;;4.01;90.99
22662;BME280;11497;52.222;21.246;2023-02-20T09:56:44;99883.63;;;3.95;91.53
22662;BME280;11497;52.222;21.246;2023-02-20T09:59:22;99879.38;;;3.91;91.97
22662;BME280;11497;52.222;21.246;2023-02-20T10:02:17;99869.66;;;4.07;91.60
22662;BME280;11497;52.222;21.246;2023-02-20T10:04:48;99867.16;;;4.00;91.92
22662;BME280;11497;52.222;21.246;2023-02-20T10:07:29;99864.78;;;3.88;91.99
22662;BME280;11497;52.222;21.246;2023-02-20T10:09:58;99862.16;;;3.90;92.58
22662;BME280;11497;52.222;21.246;2023-02-20T10:18:18;99826.28;;;3.65;93.93
22662;BME280;11497;52.222;21.246;2023-02-20T10:20:57;99828.13;;;3.56;94.15
22662;BME280;11497;52.222;21.246;2023-02-20T10:26:08;99802.56;;;3.34;93.83
22662;BME280;11497;52.222;21.246;2023-02-20T10:28:39;99804.38;;;3.28;93.72
22662;BME280;11497;52.222;21.246;2023-02-20T10:34:13;99782.13;;;3.15;94.01
22662;BME280;11497;52.222;21.246;2023-02-20T10:36:47;99788.16;;;3.15;93.65
22662;BME280;11497;52.222;21.246;2023-02-20T10:39:19;99775.47;;;2.98;93.83
22662;BME280;11497;52.222;21.246;2023-02-20T10:42:21;99777.31;;;2.87;94.82
22662;BME280;11497;52.222;21.246;2023-02-20T10:44:57;99753.31;;;2.76;95.06
22662;BME280;11497;52.222;21.246;2023-02-20T10:47:48;99730.09;;;2.75;95.39
22662;BME280;11497;52.222;21.246;2023-02-20T10:50:28;99747.97;;;2.91;95.19
22662;BME280;11497;52.222;21.246;2023-02-20T10:53:28;99761.09;;;2.75;95.77
22662;BME280;11497;52.222;21.246;2023-02-20T11:01:29;99736.97;;;2.74;97.61
22662;BME280;11497;52.222;21.246;2023-02-20T11:04:11;99718.00;;;2.78;97.52
22662;BME280;11497;52.222;21.246;2023-02-20T11:06:45;99729.22;;;2.74;97.78
22662;BME280;11497;52.222;21.246;2023-02-20T11:09:13;99714.50;;;2.81;98.02
22662;BME280;11497;52.222;21.246;2023-02-20T11:11:43;99690.44;;;2.77;97.80
22662;BME280;11497;52.222;21.246;2023-02-20T11:14:15;99696.25;;;2.94;98.03
22662;BME280;11497;52.222;21.246;2023-02-20T11:17:12;99687.75;;;2.86;97.93
22662;BME280;11497;52.222;21.246;2023-02-20T11:19:46;99682.50;;;2.92;97.96
22662;BME280;11497;52.222;21.246;2023-02-20T11:22:16;99676.53;;;2.86;97.76
22662;BME280;11497;52.222;21.246;2023-02-20T11:24:45;99658.63;;;2.72;98.41
22662;BME280;11497;52.222;21.246;2023-02-20T11:27:22;99646.56;;;2.74;97.89
22662;BME280;11497;52.222;21.246;2023-02-20T11:32:49;99620.88;;;2.62;98.64
22662;BME280;11497;52.222;21.246;2023-02-20T11:35:27;99522.88;;;2.53;99.04
22662;BME280;11497;52.222;21.246;2023-02-20T11:41:33;99569.28;;;2.59;99.84
22662;BME280;11497;52.222;21.246;2023-02-20T11:46:23;99503.66;;;2.69;100.00
22662;BME280;11497;52.222;21.246;2023-02-20T11:51:42;99527.75;;;2.71;100.00
22662;BME280;11497;52.222;21.246;2023-02-20T11:54:24;99503.53;;;2.78;100.00
22662;BME280;11497;52.222;21.246;2023-02-20T12:02:26;99458.91;;;3.18;100.00
22662;BME280;11497;52.222;21.246;2023-02-20T12:05:09;99451.00;;;3.25;100.00
22662;BME280;11497;52.222;21.246;2023-02-20T12:07:43;99447.63;;;3.22;100.00
22662;BME280;11497;52.222;21.246;2023-02-20T12:12:50;99429.84;;;3.48;100.00
22662;BME280;11497;52.222;21.246;2023-02-20T12:15:24;99390.88;;;3.57;100.00
22662;BME280;11497;52.222;21.246;2023-02-20T12:20:24;99367.19;;;3.76;100.00
22662;BME280;11497;52.222;21.246;2023-02-20T12:26:05;99355.16;;;4.12;100.00
22662;BME280;11497;52.222;21.246;2023-02-20T12:34:38;99329.78;;;4.60;100.00
22662;BME280;11497;52.222;21.246;2023-02-20T12:37:10;99323.94;;;4.52;99.88
22662;BME280;11497;52.222;21.246;2023-02-20T13:02:13;99313.44;;;5.20;98.62
22662;BME280;11497;52.222;21.246;2023-02-20T13:04:46;99333.84;;;5.30;98.44
22662;BME280;11497;52.222;21.246;2023-02-20T13:07:23;99333.91;;;5.29;98.48
22662;BME280;11497;52.222;21.246;2023-02-20T13:12:23;99335.84;;;5.21;98.61
22662;BME280;11497;52.222;21.246;2023-02-20T13:17:46;99335.13;;;5.17;98.77
22662;BME280;11497;52.222;21.246;2023-02-20T13:20:29;99323.81;;;5.20;99.05
22662;BME280;11497;52.222;21.246;2023-02-20T13:25:44;99324.19;;;5.35;99.19
22662;BME280;11497;52.222;21.246;2023-02-20T13:30:40;99306.00;;;5.37;98.85
22662;BME280;11497;52.222;21.246;2023-02-20T13:35:54;99299.81;;;5.41;98.64
22662;BME280;11497;52.222;21.246;2023-02-20T13:38:24;99300.44;;;5.49;98.94
22662;BME280;11497;52.222;21.246;2023-02-20T13:43:30;99287.38;;;5.52;98.40
22662;BME280;11497;52.222;21.246;2023-02-20T13:51:28;99274.81;;;5.66;98.27
22662;BME280;11497;52.222;21.246;2023-02-20T13:54:17;99258.09;;;5.75;98.01
22662;BME280;11497;52.222;21.246;2023-02-20T13:56:58;99252.06;;;5.75;97.74
22662;BME280;11497;52.222;21.246;2023-02-20T13:59:29;99251.06;;;5.79;97.73
22662;BME280;11497;52.222;21.246;2023-02-20T14:04:32;99243.88;;;5.87;97.53
22662;BME280;11497;52.222;21.246;2023-02-20T14:07:00;99259.31;;;5.93;97.14
22662;BME280;11497;52.222;21.246;2023-02-20T14:09:28;99255.91;;;5.91;96.77
22662;BME280;11497;52.222;21.246;2023-02-20T14:12:11;99254.00;;;5.96;96.78
22662;BME280;11497;52.222;21.246;2023-02-20T14:14:44;99239.19;;;5.99;96.74
22662;BME280;11497;52.222;21.246;2023-02-20T14:17:18;99231.00;;;6.10;96.34
22662;BME280;11497;52.222;21.246;2023-02-20T14:19:53;99230.91;;;6.13;96.63
22662;BME280;11497;52.222;21.246;2023-02-20T14:22:35;99230.81;;;6.16;96.51
22662;BME280;11497;52.222;21.246;2023-02-20T14:25:24;99209.59;;;6.28;96.06
22662;BME280;11497;52.222;21.246;2023-02-20T14:28:04;99202.50;;;6.33;95.57
22662;BME280;11497;52.222;21.246;2023-02-20T14:30:33;99198.31;;;6.29;95.45
22662;BME280;11497;52.222;21.246;2023-02-20T14:33:01;99211.19;;;6.32;95.13
22662;BME280;11497;52.222;21.246;2023-02-20T14:38:39;99201.97;;;6.49;94.47
22662;BME280;11497;52.222;21.246;2023-02-20T14:41:22;99180.78;;;6.59;94.43
22662;BME280;11497;52.222;21.246;2023-02-20T14:43:56;99179.97;;;6.57;94.18
22662;BME280;11497;52.222;21.246;2023-02-20T14:46:29;99156.41;;;6.62;94.09
22662;BME280;11497;52.222;21.246;2023-02-20T14:49:07;99151.00;;;6.68;93.50
22662;BME280;11497;52.222;21.246;2023-02-20T14:51:36;99137.44;;;6.60;93.34
22662;BME280;11497;52.222;21.246;2023-02-20T14:54:21;99158.63;;;6.73;92.63
22662;BME280;11497;52.222;21.246;2023-02-20T14:56:50;99151.44;;;6.79;92.23
22662;BME280;11497;52.222;21.246;2023-02-20T14:59:33;99146.53;;;6.72;92.21
22662;BME280;11497;52.222;21.246;2023-02-20T15:04:32;99141.72;;;6.84;91.86
22662;BME280;11497;52.222;21.246;2023-02-20T15:07:03;99127.13;;;6.80;91.83
22662;BME280;11497;52.222;21.246;2023-02-20T15:09:38;99113.06;;;6.86;91.56
22662;BME280;11497;52.222;21.246;2023-02-20T15:12:17;99113.06;;;6.86;91.74
22662;BME280;11497;52.222;21.246;2023-02-20T15:14:46;99114.88;;;6.84;91.40
22662;BME280;11497;52.222;21.246;2023-02-20T15:17:26;99113.41;;;6.98;91.20
22662;BME280;11497;52.222;21.246;2023-02-20T15:19:54;99106.16;;;7.07;90.72
22662;BME280;11497;52.222;21.246;2023-02-20T15:25:14;99107.56;;;7.15;89.88
22662;BME280;11497;52.222;21.246;2023-02-20T15:33:54;99101.47;;;7.37;88.83
22662;BME280;11497;52.222;21.246;2023-02-20T15:36:24;99093.22;;;7.27;88.72
22662;BME280;11497;52.222;21.246;2023-02-20T15:38:54;99064.47;;;7.30;88.51
22662;BME280;11497;52.222;21.246;2023-02-20T15:41:23;99094.50;;;7.37;88.49
22662;BME280;11497;52.222;21.246;2023-02-20T15:43:51;99088.38;;;7.38;88.07
22662;BME280;11497;52.222;21.246;2023-02-20T15:46:20;99108.56;;;7.33;87.86
22662;BME280;11497;52.222;21.246;2023-02-20T15:48:48;99119.38;;;7.44;87.85